Weather at Bilbao Airport

Public forecast

Using degrees Celsius for public forecast. Weather courtesy of forecast.io.

Current aviation weather report (METAR) for Bilbao Airport

Report is more than 6 hours old.

2022/11/14 15:30 (retrieved 2 years ago)

LEBB 141530Z 00000KT 9999 FEW017 OVC032 16/11 Q1016 NOSIG

Aviation forecast (TAF) for Bilbao Airport

Forecast is more than 12 hours old.

2023/02/22 18:27 (retrieved 1 year ago)

TAF LEBB 221700Z 2218/2318 30008KT 8000 SCT020 BKN040 TX12/2218Z TN06/2316Z TEMPO 2218/2318 33015G25KT 3000 RA BKN010 PROB30 TEMPO 2218/2318 1500 +RA BKN005 PROB40 TEMPO 2303/2318 3000 SHRAGR TS SCT030TCU FEW040CB